sensor_id;sensor_type;location;lat;lon;timestamp;P1;durP1;ratioP1;P2;durP2;ratioP2
43552;SDS011;29153;42.696;23.218;2024-03-08T00:00:52;4.03;;;2.10;;
43552;SDS011;29153;42.696;23.218;2024-03-08T00:03:20;4.47;;;2.40;;
43552;SDS011;29153;42.696;23.218;2024-03-08T00:05:48;4.55;;;1.77;;
43552;SDS011;29153;42.696;23.218;2024-03-08T00:08:16;4.90;;;2.55;;
43552;SDS011;29153;42.696;23.218;2024-03-08T00:10:43;6.33;;;2.50;;
43552;SDS011;29153;42.696;23.218;2024-03-08T00:13:11;4.85;;;2.70;;
43552;SDS011;29153;42.696;23.218;2024-03-08T00:15:39;4.35;;;2.45;;
43552;SDS011;29153;42.696;23.218;2024-03-08T00:18:06;4.15;;;2.17;;
43552;SDS011;29153;42.696;23.218;2024-03-08T00:20:34;5.47;;;2.92;;
43552;SDS011;29153;42.696;23.218;2024-03-08T00:23:02;5.15;;;2.72;;
43552;SDS011;29153;42.696;23.218;2024-03-08T00:25:29;6.17;;;3.58;;
43552;SDS011;29153;42.696;23.218;2024-03-08T00:27:57;7.17;;;4.37;;
43552;SDS011;29153;42.696;23.218;2024-03-08T00:30:25;6.20;;;3.80;;
43552;SDS011;29153;42.696;23.218;2024-03-08T00:32:53;5.60;;;3.20;;
43552;SDS011;29153;42.696;23.218;2024-03-08T00:35:20;5.70;;;3.47;;
43552;SDS011;29153;42.696;23.218;2024-03-08T00:37:48;4.33;;;2.55;;
43552;SDS011;29153;42.696;23.218;2024-03-08T00:40:16;4.28;;;2.37;;
43552;SDS011;29153;42.696;23.218;2024-03-08T00:42:43;3.90;;;1.85;;
43552;SDS011;29153;42.696;23.218;2024-03-08T00:45:11;3.12;;;1.72;;
43552;SDS011;29153;42.696;23.218;2024-03-08T00:47:39;2.85;;;1.22;;
43552;SDS011;29153;42.696;23.218;2024-03-08T00:50:08;2.95;;;1.52;;
43552;SDS011;29153;42.696;23.218;2024-03-08T00:52:36;3.80;;;1.98;;
43552;SDS011;29153;42.696;23.218;2024-03-08T00:55:04;3.62;;;2.00;;
43552;SDS011;29153;42.696;23.218;2024-03-08T00:57:33;3.90;;;2.17;;
43552;SDS011;29153;42.696;23.218;2024-03-08T01:00:02;3.95;;;1.50;;
43552;SDS011;29153;42.696;23.218;2024-03-08T01:02:32;3.52;;;1.65;;
43552;SDS011;29153;42.696;23.218;2024-03-08T01:07:29;2.72;;;1.52;;
43552;SDS011;29153;42.696;23.218;2024-03-08T01:09:57;4.67;;;1.98;;
43552;SDS011;29153;42.696;23.218;2024-03-08T01:12:24;3.50;;;2.10;;
43552;SDS011;29153;42.696;23.218;2024-03-08T01:14:52;5.55;;;3.00;;
43552;SDS011;29153;42.696;23.218;2024-03-08T01:17:20;3.62;;;2.08;;
43552;SDS011;29153;42.696;23.218;2024-03-08T01:19:47;6.58;;;2.42;;
43552;SDS011;29153;42.696;23.218;2024-03-08T01:22:15;4.70;;;2.67;;
43552;SDS011;29153;42.696;23.218;2024-03-08T01:24:42;4.42;;;2.85;;
43552;SDS011;29153;42.696;23.218;2024-03-08T01:27:10;4.60;;;2.80;;
43552;SDS011;29153;42.696;23.218;2024-03-08T01:29:37;3.27;;;1.70;;
43552;SDS011;29153;42.696;23.218;2024-03-08T01:32:05;3.55;;;1.75;;
43552;SDS011;29153;42.696;23.218;2024-03-08T01:34:33;3.90;;;1.90;;
43552;SDS011;29153;42.696;23.218;2024-03-08T01:37:01;3.52;;;1.85;;
43552;SDS011;29153;42.696;23.218;2024-03-08T01:39:28;3.08;;;1.42;;
43552;SDS011;29153;42.696;23.218;2024-03-08T01:41:58;3.87;;;1.90;;
43552;SDS011;29153;42.696;23.218;2024-03-08T01:44:26;4.30;;;2.27;;
43552;SDS011;29153;42.696;23.218;2024-03-08T01:46:54;4.35;;;1.70;;
43552;SDS011;29153;42.696;23.218;2024-03-08T01:49:22;3.92;;;1.85;;
43552;SDS011;29153;42.696;23.218;2024-03-08T01:51:52;3.40;;;1.77;;
43552;SDS011;29153;42.696;23.218;2024-03-08T01:54:21;3.02;;;1.52;;
43552;SDS011;29153;42.696;23.218;2024-03-08T01:56:50;3.58;;;1.57;;
43552;SDS011;29153;42.696;23.218;2024-03-08T02:01:45;3.10;;;1.37;;
43552;SDS011;29153;42.696;23.218;2024-03-08T02:04:13;3.55;;;2.20;;
43552;SDS011;29153;42.696;23.218;2024-03-08T02:06:42;3.25;;;1.40;;
43552;SDS011;29153;42.696;23.218;2024-03-08T02:09:10;3.40;;;1.82;;
43552;SDS011;29153;42.696;23.218;2024-03-08T02:11:38;3.35;;;1.67;;
43552;SDS011;29153;42.696;23.218;2024-03-08T02:14:08;2.75;;;1.67;;
43552;SDS011;29153;42.696;23.218;2024-03-08T02:16:36;3.08;;;1.82;;
43552;SDS011;29153;42.696;23.218;2024-03-08T02:19:04;3.20;;;1.45;;
43552;SDS011;29153;42.696;23.218;2024-03-08T02:21:34;3.52;;;1.75;;
43552;SDS011;29153;42.696;23.218;2024-03-08T02:24:02;5.33;;;2.40;;
43552;SDS011;29153;42.696;23.218;2024-03-08T02:26:31;4.90;;;2.33;;
43552;SDS011;29153;42.696;23.218;2024-03-08T02:28:58;4.15;;;2.05;;
43552;SDS011;29153;42.696;23.218;2024-03-08T02:31:26;5.53;;;2.33;;
43552;SDS011;29153;42.696;23.218;2024-03-08T02:33:53;5.33;;;2.50;;
43552;SDS011;29153;42.696;23.218;2024-03-08T02:36:21;3.90;;;2.22;;
43552;SDS011;29153;42.696;23.218;2024-03-08T02:38:49;3.27;;;1.82;;
43552;SDS011;29153;42.696;23.218;2024-03-08T02:41:16;4.15;;;1.65;;
43552;SDS011;29153;42.696;23.218;2024-03-08T02:43:44;4.47;;;2.05;;
43552;SDS011;29153;42.696;23.218;2024-03-08T02:46:11;3.87;;;2.00;;
43552;SDS011;29153;42.696;23.218;2024-03-08T02:48:40;4.58;;;2.27;;
43552;SDS011;29153;42.696;23.218;2024-03-08T02:51:08;4.62;;;2.22;;
43552;SDS011;29153;42.696;23.218;2024-03-08T02:53:36;4.17;;;2.80;;
43552;SDS011;29153;42.696;23.218;2024-03-08T02:56:03;4.72;;;1.62;;
43552;SDS011;29153;42.696;23.218;2024-03-08T02:58:33;4.22;;;2.20;;
43552;SDS011;29153;42.696;23.218;2024-03-08T03:01:00;4.03;;;1.70;;
43552;SDS011;29153;42.696;23.218;2024-03-08T03:03:28;2.98;;;1.80;;
43552;SDS011;29153;42.696;23.218;2024-03-08T03:05:55;4.42;;;2.00;;
43552;SDS011;29153;42.696;23.218;2024-03-08T03:08:23;4.03;;;2.02;;
43552;SDS011;29153;42.696;23.218;2024-03-08T03:10:50;3.42;;;1.87;;
43552;SDS011;29153;42.696;23.218;2024-03-08T03:13:18;2.87;;;1.62;;
43552;SDS011;29153;42.696;23.218;2024-03-08T03:15:46;2.98;;;1.60;;
43552;SDS011;29153;42.696;23.218;2024-03-08T03:18:13;4.00;;;1.72;;
43552;SDS011;29153;42.696;23.218;2024-03-08T03:20:41;3.17;;;1.40;;
43552;SDS011;29153;42.696;23.218;2024-03-08T03:23:09;3.77;;;1.50;;
43552;SDS011;29153;42.696;23.218;2024-03-08T03:25:39;3.33;;;1.45;;
43552;SDS011;29153;42.696;23.218;2024-03-08T03:28:07;6.33;;;3.12;;
43552;SDS011;29153;42.696;23.218;2024-03-08T03:30:36;5.72;;;2.20;;
43552;SDS011;29153;42.696;23.218;2024-03-08T03:33:04;4.50;;;2.42;;
43552;SDS011;29153;42.696;23.218;2024-03-08T03:35:32;3.90;;;1.77;;
43552;SDS011;29153;42.696;23.218;2024-03-08T03:38:01;4.33;;;1.62;;
43552;SDS011;29153;42.696;23.218;2024-03-08T03:40:35;3.00;;;1.50;;
43552;SDS011;29153;42.696;23.218;2024-03-08T03:43:03;4.20;;;1.72;;
43552;SDS011;29153;42.696;23.218;2024-03-08T03:45:31;4.15;;;2.22;;
43552;SDS011;29153;42.696;23.218;2024-03-08T03:48:02;6.87;;;2.67;;
43552;SDS011;29153;42.696;23.218;2024-03-08T03:50:32;3.65;;;1.52;;
43552;SDS011;29153;42.696;23.218;2024-03-08T03:53:03;4.75;;;2.45;;
43552;SDS011;29153;42.696;23.218;2024-03-08T03:55:32;5.80;;;2.02;;
43552;SDS011;29153;42.696;23.218;2024-03-08T03:58:00;4.50;;;2.20;;
43552;SDS011;29153;42.696;23.218;2024-03-08T04:00:28;5.15;;;2.35;;
43552;SDS011;29153;42.696;23.218;2024-03-08T04:02:56;5.70;;;2.70;;
43552;SDS011;29153;42.696;23.218;2024-03-08T04:05:25;7.35;;;3.25;;
43552;SDS011;29153;42.696;23.218;2024-03-08T04:07:52;8.08;;;4.55;;
43552;SDS011;29153;42.696;23.218;2024-03-08T04:10:20;5.97;;;2.95;;
43552;SDS011;29153;42.696;23.218;2024-03-08T04:12:48;4.00;;;2.08;;
43552;SDS011;29153;42.696;23.218;2024-03-08T04:15:15;6.42;;;2.75;;
43552;SDS011;29153;42.696;23.218;2024-03-08T04:17:43;6.42;;;3.77;;
43552;SDS011;29153;42.696;23.218;2024-03-08T04:20:11;5.95;;;3.40;;
43552;SDS011;29153;42.696;23.218;2024-03-08T04:22:40;5.95;;;3.10;;
43552;SDS011;29153;42.696;23.218;2024-03-08T04:25:08;6.55;;;3.65;;
43552;SDS011;29153;42.696;23.218;2024-03-08T04:27:36;7.37;;;3.33;;
43552;SDS011;29153;42.696;23.218;2024-03-08T04:30:04;10.85;;;6.15;;
43552;SDS011;29153;42.696;23.218;2024-03-08T04:32:33;6.50;;;3.70;;
43552;SDS011;29153;42.696;23.218;2024-03-08T04:35:01;5.72;;;2.62;;
43552;SDS011;29153;42.696;23.218;2024-03-08T04:37:29;2.92;;;1.50;;
43552;SDS011;29153;42.696;23.218;2024-03-08T04:39:57;3.40;;;1.62;;
43552;SDS011;29153;42.696;23.218;2024-03-08T04:42:24;3.27;;;1.15;;
43552;SDS011;29153;42.696;23.218;2024-03-08T04:44:55;6.10;;;3.27;;
43552;SDS011;29153;42.696;23.218;2024-03-08T04:47:23;7.78;;;2.72;;
43552;SDS011;29153;42.696;23.218;2024-03-08T04:49:51;5.05;;;1.57;;
43552;SDS011;29153;42.696;23.218;2024-03-08T04:52:20;9.25;;;2.15;;
43552;SDS011;29153;42.696;23.218;2024-03-08T04:54:47;5.67;;;1.50;;
43552;SDS011;29153;42.696;23.218;2024-03-08T04:57:15;3.27;;;1.22;;
43552;SDS011;29153;42.696;23.218;2024-03-08T04:59:44;4.20;;;1.77;;
43552;SDS011;29153;42.696;23.218;2024-03-08T05:02:12;3.33;;;1.95;;
43552;SDS011;29153;42.696;23.218;2024-03-08T05:04:39;3.52;;;2.22;;
43552;SDS011;29153;42.696;23.218;2024-03-08T05:07:07;5.22;;;2.15;;
43552;SDS011;29153;42.696;23.218;2024-03-08T05:09:35;4.10;;;2.33;;
43552;SDS011;29153;42.696;23.218;2024-03-08T05:12:03;5.62;;;2.72;;
43552;SDS011;29153;42.696;23.218;2024-03-08T05:14:30;4.72;;;2.40;;
43552;SDS011;29153;42.696;23.218;2024-03-08T05:16:58;6.08;;;2.70;;
43552;SDS011;29153;42.696;23.218;2024-03-08T05:19:26;5.45;;;2.60;;
43552;SDS011;29153;42.696;23.218;2024-03-08T05:21:55;6.67;;;2.75;;
43552;SDS011;29153;42.696;23.218;2024-03-08T05:24:23;5.87;;;2.92;;
43552;SDS011;29153;42.696;23.218;2024-03-08T05:26:51;4.15;;;1.87;;
43552;SDS011;29153;42.696;23.218;2024-03-08T05:29:18;7.37;;;3.98;;
43552;SDS011;29153;42.696;23.218;2024-03-08T05:31:50;5.25;;;2.87;;
43552;SDS011;29153;42.696;23.218;2024-03-08T05:34:18;5.75;;;3.05;;
43552;SDS011;29153;42.696;23.218;2024-03-08T05:36:52;6.15;;;3.37;;
43552;SDS011;29153;42.696;23.218;2024-03-08T05:39:16;5.90;;;3.22;;
43552;SDS011;29153;42.696;23.218;2024-03-08T05:41:45;8.75;;;3.05;;
43552;SDS011;29153;42.696;23.218;2024-03-08T05:44:13;11.30;;;3.40;;
43552;SDS011;29153;42.696;23.218;2024-03-08T05:46:42;10.55;;;3.90;;
43552;SDS011;29153;42.696;23.218;2024-03-08T05:49:10;10.40;;;3.83;;
43552;SDS011;29153;42.696;23.218;2024-03-08T05:51:37;19.05;;;8.43;;
43552;SDS011;29153;42.696;23.218;2024-03-08T05:56:36;16.77;;;8.00;;
43552;SDS011;29153;42.696;23.218;2024-03-08T05:59:04;8.63;;;4.00;;
43552;SDS011;29153;42.696;23.218;2024-03-08T06:01:32;11.25;;;5.33;;
43552;SDS011;29153;42.696;23.218;2024-03-08T06:04:01;11.45;;;5.05;;
43552;SDS011;29153;42.696;23.218;2024-03-08T06:06:29;12.98;;;5.72;;
43552;SDS011;29153;42.696;23.218;2024-03-08T06:08:57;9.73;;;4.95;;
43552;SDS011;29153;42.696;23.218;2024-03-08T06:11:25;11.88;;;4.83;;
43552;SDS011;29153;42.696;23.218;2024-03-08T06:16:22;10.75;;;4.17;;
43552;SDS011;29153;42.696;23.218;2024-03-08T06:18:50;9.50;;;3.75;;
43552;SDS011;29153;42.696;23.218;2024-03-08T06:21:17;15.60;;;6.03;;
43552;SDS011;29153;42.696;23.218;2024-03-08T06:23:45;15.63;;;6.90;;
43552;SDS011;29153;42.696;23.218;2024-03-08T06:26:13;16.87;;;6.28;;
43552;SDS011;29153;42.696;23.218;2024-03-08T06:28:40;10.85;;;5.53;;
43552;SDS011;29153;42.696;23.218;2024-03-08T06:31:08;10.28;;;5.55;;
43552;SDS011;29153;42.696;23.218;2024-03-08T06:33:36;9.73;;;5.05;;
43552;SDS011;29153;42.696;23.218;2024-03-08T06:36:04;15.15;;;5.10;;
43552;SDS011;29153;42.696;23.218;2024-03-08T06:38:32;11.80;;;5.87;;
43552;SDS011;29153;42.696;23.218;2024-03-08T06:41:00;11.28;;;5.65;;
43552;SDS011;29153;42.696;23.218;2024-03-08T06:43:29;11.83;;;5.67;;
43552;SDS011;29153;42.696;23.218;2024-03-08T06:45:58;13.08;;;6.70;;
43552;SDS011;29153;42.696;23.218;2024-03-08T06:48:25;11.30;;;5.87;;
43552;SDS011;29153;42.696;23.218;2024-03-08T06:50:55;12.30;;;6.00;;
43552;SDS011;29153;42.696;23.218;2024-03-08T06:53:22;13.05;;;6.08;;
43552;SDS011;29153;42.696;23.218;2024-03-08T06:55:50;13.55;;;6.53;;
43552;SDS011;29153;42.696;23.218;2024-03-08T06:58:18;12.03;;;6.42;;
43552;SDS011;29153;42.696;23.218;2024-03-08T07:00:45;12.43;;;6.75;;
43552;SDS011;29153;42.696;23.218;2024-03-08T07:03:15;12.25;;;6.87;;
43552;SDS011;29153;42.696;23.218;2024-03-08T07:05:42;10.75;;;5.20;;
43552;SDS011;29153;42.696;23.218;2024-03-08T07:08:10;13.28;;;7.35;;
43552;SDS011;29153;42.696;23.218;2024-03-08T07:10:42;16.10;;;7.92;;
43552;SDS011;29153;42.696;23.218;2024-03-08T07:13:10;13.88;;;6.22;;
43552;SDS011;29153;42.696;23.218;2024-03-08T07:15:38;11.65;;;5.92;;
43552;SDS011;29153;42.696;23.218;2024-03-08T07:18:05;22.27;;;10.80;;
43552;SDS011;29153;42.696;23.218;2024-03-08T07:23:02;22.40;;;8.78;;
43552;SDS011;29153;42.696;23.218;2024-03-08T07:25:30;40.05;;;15.00;;
43552;SDS011;29153;42.696;23.218;2024-03-08T07:27:58;14.78;;;7.00;;
43552;SDS011;29153;42.696;23.218;2024-03-08T07:30:26;10.38;;;5.05;;
43552;SDS011;29153;42.696;23.218;2024-03-08T07:33:13;15.18;;;5.60;;
43552;SDS011;29153;42.696;23.218;2024-03-08T07:35:41;15.98;;;7.87;;
43552;SDS011;29153;42.696;23.218;2024-03-08T07:40:42;20.72;;;8.80;;
43552;SDS011;29153;42.696;23.218;2024-03-08T07:43:08;30.55;;;12.85;;
43552;SDS011;29153;42.696;23.218;2024-03-08T07:45:36;17.42;;;8.23;;
43552;SDS011;29153;42.696;23.218;2024-03-08T07:48:04;19.57;;;10.70;;
43552;SDS011;29153;42.696;23.218;2024-03-08T07:50:38;15.32;;;8.33;;
43552;SDS011;29153;42.696;23.218;2024-03-08T07:53:07;24.35;;;11.78;;
43552;SDS011;29153;42.696;23.218;2024-03-08T07:55:35;16.12;;;8.30;;
43552;SDS011;29153;42.696;23.218;2024-03-08T07:58:03;30.90;;;12.37;;
43552;SDS011;29153;42.696;23.218;2024-03-08T08:00:31;20.95;;;9.45;;
43552;SDS011;29153;42.696;23.218;2024-03-08T08:02:59;31.00;;;12.68;;
43552;SDS011;29153;42.696;23.218;2024-03-08T08:05:26;26.77;;;11.93;;
43552;SDS011;29153;42.696;23.218;2024-03-08T08:07:54;32.23;;;12.60;;
43552;SDS011;29153;42.696;23.218;2024-03-08T08:10:22;25.77;;;12.07;;
43552;SDS011;29153;42.696;23.218;2024-03-08T08:12:50;42.50;;;15.23;;
43552;SDS011;29153;42.696;23.218;2024-03-08T08:15:18;12.85;;;6.37;;
43552;SDS011;29153;42.696;23.218;2024-03-08T08:17:46;32.90;;;11.85;;
43552;SDS011;29153;42.696;23.218;2024-03-08T08:20:13;42.38;;;14.13;;
43552;SDS011;29153;42.696;23.218;2024-03-08T08:22:41;15.35;;;8.23;;
43552;SDS011;29153;42.696;23.218;2024-03-08T08:25:09;23.60;;;9.58;;
43552;SDS011;29153;42.696;23.218;2024-03-08T08:27:45;43.50;;;16.10;;
43552;SDS011;29153;42.696;23.218;2024-03-08T08:30:13;30.48;;;10.48;;
43552;SDS011;29153;42.696;23.218;2024-03-08T08:32:41;87.72;;;24.98;;
43552;SDS011;29153;42.696;23.218;2024-03-08T08:35:09;9.85;;;6.15;;
43552;SDS011;29153;42.696;23.218;2024-03-08T08:37:40;27.15;;;9.95;;
43552;SDS011;29153;42.696;23.218;2024-03-08T08:40:08;33.98;;;12.40;;
43552;SDS011;29153;42.696;23.218;2024-03-08T08:42:37;14.15;;;8.35;;
43552;SDS011;29153;42.696;23.218;2024-03-08T08:45:05;10.90;;;6.75;;
43552;SDS011;29153;42.696;23.218;2024-03-08T08:47:36;8.80;;;5.05;;
43552;SDS011;29153;42.696;23.218;2024-03-08T08:50:04;6.47;;;3.72;;
43552;SDS011;29153;42.696;23.218;2024-03-08T08:52:31;6.40;;;3.37;;
43552;SDS011;29153;42.696;23.218;2024-03-08T08:57:28;14.23;;;9.08;;
43552;SDS011;29153;42.696;23.218;2024-03-08T08:59:58;10.58;;;6.28;;
43552;SDS011;29153;42.696;23.218;2024-03-08T09:02:26;8.23;;;5.30;;
43552;SDS011;29153;42.696;23.218;2024-03-08T09:04:53;5.90;;;3.40;;
43552;SDS011;29153;42.696;23.218;2024-03-08T09:07:21;15.58;;;7.78;;
43552;SDS011;29153;42.696;23.218;2024-03-08T09:12:16;10.18;;;4.17;;
43552;SDS011;29153;42.696;23.218;2024-03-08T09:14:43;6.90;;;3.92;;
43552;SDS011;29153;42.696;23.218;2024-03-08T09:17:11;11.70;;;4.05;;
43552;SDS011;29153;42.696;23.218;2024-03-08T09:19:40;9.55;;;4.20;;
43552;SDS011;29153;42.696;23.218;2024-03-08T09:22:08;5.65;;;2.92;;
43552;SDS011;29153;42.696;23.218;2024-03-08T09:24:36;7.65;;;4.17;;
43552;SDS011;29153;42.696;23.218;2024-03-08T09:27:04;21.27;;;11.35;;
43552;SDS011;29153;42.696;23.218;2024-03-08T09:29:31;14.68;;;7.10;;
43552;SDS011;29153;42.696;23.218;2024-03-08T09:31:59;8.58;;;4.37;;
43552;SDS011;29153;42.696;23.218;2024-03-08T09:34:27;13.95;;;7.03;;
43552;SDS011;29153;42.696;23.218;2024-03-08T09:36:55;6.80;;;3.90;;
43552;SDS011;29153;42.696;23.218;2024-03-08T09:39:23;11.00;;;5.08;;
43552;SDS011;29153;42.696;23.218;2024-03-08T09:41:50;25.80;;;11.33;;
43552;SDS011;29153;42.696;23.218;2024-03-08T09:44:18;9.55;;;4.85;;
43552;SDS011;29153;42.696;23.218;2024-03-08T09:46:46;6.62;;;3.27;;
43552;SDS011;29153;42.696;23.218;2024-03-08T09:49:13;8.38;;;3.22;;
43552;SDS011;29153;42.696;23.218;2024-03-08T09:51:42;16.57;;;7.28;;
43552;SDS011;29153;42.696;23.218;2024-03-08T09:54:09;10.90;;;4.50;;
43552;SDS011;29153;42.696;23.218;2024-03-08T09:56:43;5.53;;;2.70;;
43552;SDS011;29153;42.696;23.218;2024-03-08T09:59:07;6.78;;;3.55;;
43552;SDS011;29153;42.696;23.218;2024-03-08T10:01:39;4.00;;;2.02;;
43552;SDS011;29153;42.696;23.218;2024-03-08T10:04:07;4.33;;;2.30;;
43552;SDS011;29153;42.696;23.218;2024-03-08T10:06:35;6.05;;;2.83;;
43552;SDS011;29153;42.696;23.218;2024-03-08T10:09:03;4.90;;;2.35;;
43552;SDS011;29153;42.696;23.218;2024-03-08T10:11:32;5.72;;;2.47;;
43552;SDS011;29153;42.696;23.218;2024-03-08T10:14:00;9.78;;;4.00;;
43552;SDS011;29153;42.696;23.218;2024-03-08T10:16:28;13.35;;;5.15;;
43552;SDS011;29153;42.696;23.218;2024-03-08T10:18:58;11.20;;;4.80;;
43552;SDS011;29153;42.696;23.218;2024-03-08T10:21:26;8.55;;;3.80;;
43552;SDS011;29153;42.696;23.218;2024-03-08T10:23:53;6.53;;;2.92;;
43552;SDS011;29153;42.696;23.218;2024-03-08T10:26:24;29.80;;;11.88;;
43552;SDS011;29153;42.696;23.218;2024-03-08T10:28:52;15.43;;;5.03;;
43552;SDS011;29153;42.696;23.218;2024-03-08T10:31:19;4.62;;;2.15;;
43552;SDS011;29153;42.696;23.218;2024-03-08T10:33:47;5.42;;;2.20;;
43552;SDS011;29153;42.696;23.218;2024-03-08T10:36:15;5.90;;;3.12;;
43552;SDS011;29153;42.696;23.218;2024-03-08T10:38:44;7.42;;;3.50;;
43552;SDS011;29153;42.696;23.218;2024-03-08T10:46:41;3.40;;;1.50;;
43552;SDS011;29153;42.696;23.218;2024-03-08T10:49:17;8.43;;;5.05;;
43552;SDS011;29153;42.696;23.218;2024-03-08T10:51:46;3.37;;;1.98;;
43552;SDS011;29153;42.696;23.218;2024-03-08T10:54:15;4.28;;;2.10;;
43552;SDS011;29153;42.696;23.218;2024-03-08T10:56:43;7.90;;;3.58;;
43552;SDS011;29153;42.696;23.218;2024-03-08T10:59:10;4.85;;;2.62;;
43552;SDS011;29153;42.696;23.218;2024-03-08T11:01:39;3.72;;;1.82;;
43552;SDS011;29153;42.696;23.218;2024-03-08T11:04:07;4.92;;;3.12;;
43552;SDS011;29153;42.696;23.218;2024-03-08T11:09:30;3.22;;;1.47;;
43552;SDS011;29153;42.696;23.218;2024-03-08T11:14:52;4.08;;;2.00;;
43552;SDS011;29153;42.696;23.218;2024-03-08T11:17:20;3.62;;;1.90;;
43552;SDS011;29153;42.696;23.218;2024-03-08T11:19:56;5.42;;;2.22;;
43552;SDS011;29153;42.696;23.218;2024-03-08T11:22:29;3.12;;;1.45;;
43552;SDS011;29153;42.696;23.218;2024-03-08T11:25:04;3.35;;;1.75;;
43552;SDS011;29153;42.696;23.218;2024-03-08T11:27:29;3.95;;;1.72;;
43552;SDS011;29153;42.696;23.218;2024-03-08T11:30:00;6.28;;;1.30;;
43552;SDS011;29153;42.696;23.218;2024-03-08T11:32:37;2.90;;;1.22;;
43552;SDS011;29153;42.696;23.218;2024-03-08T11:35:08;13.32;;;6.97;;
43552;SDS011;29153;42.696;23.218;2024-03-08T11:37:48;10.15;;;5.45;;
43552;SDS011;29153;42.696;23.218;2024-03-08T11:40:16;10.03;;;4.20;;
43552;SDS011;29153;42.696;23.218;2024-03-08T11:42:45;6.83;;;2.35;;
43552;SDS011;29153;42.696;23.218;2024-03-08T11:45:14;10.30;;;4.83;;
43552;SDS011;29153;42.696;23.218;2024-03-08T11:47:43;32.63;;;13.90;;
43552;SDS011;29153;42.696;23.218;2024-03-08T11:50:12;30.48;;;13.78;;
43552;SDS011;29153;42.696;23.218;2024-03-08T11:52:41;3.47;;;2.10;;
43552;SDS011;29153;42.696;23.218;2024-03-08T11:55:09;6.28;;;2.75;;
43552;SDS011;29153;42.696;23.218;2024-03-08T11:57:38;47.43;;;24.65;;
43552;SDS011;29153;42.696;23.218;2024-03-08T12:00:14;3.77;;;2.12;;
43552;SDS011;29153;42.696;23.218;2024-03-08T12:02:44;6.03;;;2.65;;
43552;SDS011;29153;42.696;23.218;2024-03-08T12:05:13;2.75;;;1.30;;
43552;SDS011;29153;42.696;23.218;2024-03-08T12:10:18;8.28;;;3.87;;
43552;SDS011;29153;42.696;23.218;2024-03-08T12:12:48;8.53;;;3.67;;
43552;SDS011;29153;42.696;23.218;2024-03-08T12:15:17;5.53;;;2.90;;
43552;SDS011;29153;42.696;23.218;2024-03-08T12:17:47;7.10;;;2.05;;
43552;SDS011;29153;42.696;23.218;2024-03-08T12:20:24;2.95;;;1.40;;
43552;SDS011;29153;42.696;23.218;2024-03-08T12:22:49;4.00;;;2.05;;
43552;SDS011;29153;42.696;23.218;2024-03-08T12:25:22;6.45;;;2.52;;
43552;SDS011;29153;42.696;23.218;2024-03-08T12:27:52;5.85;;;4.20;;
43552;SDS011;29153;42.696;23.218;2024-03-08T12:30:25;4.28;;;1.95;;
43552;SDS011;29153;42.696;23.218;2024-03-08T12:35:25;3.72;;;2.25;;
43552;SDS011;29153;42.696;23.218;2024-03-08T12:37:57;2.90;;;1.67;;
43552;SDS011;29153;42.696;23.218;2024-03-08T12:40:29;2.98;;;1.40;;
43552;SDS011;29153;42.696;23.218;2024-03-08T12:42:58;2.60;;;1.35;;
43552;SDS011;29153;42.696;23.218;2024-03-08T12:45:25;2.55;;;1.07;;
43552;SDS011;29153;42.696;23.218;2024-03-08T12:47:53;2.83;;;1.62;;
43552;SDS011;29153;42.696;23.218;2024-03-08T12:52:50;2.30;;;0.93;;
43552;SDS011;29153;42.696;23.218;2024-03-08T12:55:19;3.50;;;1.40;;
43552;SDS011;29153;42.696;23.218;2024-03-08T12:57:47;3.25;;;1.05;;
43552;SDS011;29153;42.696;23.218;2024-03-08T13:00:15;2.65;;;1.32;;
43552;SDS011;29153;42.696;23.218;2024-03-08T13:02:45;2.33;;;1.07;;
43552;SDS011;29153;42.696;23.218;2024-03-08T13:05:13;4.35;;;2.50;;
43552;SDS011;29153;42.696;23.218;2024-03-08T13:07:41;7.53;;;2.75;;
43552;SDS011;29153;42.696;23.218;2024-03-08T13:10:12;9.93;;;3.83;;
43552;SDS011;29153;42.696;23.218;2024-03-08T13:12:44;7.37;;;3.35;;
43552;SDS011;29153;42.696;23.218;2024-03-08T13:15:12;3.60;;;2.20;;
43552;SDS011;29153;42.696;23.218;2024-03-08T13:17:44;3.72;;;1.32;;
43552;SDS011;29153;42.696;23.218;2024-03-08T13:20:12;4.45;;;2.15;;
43552;SDS011;29153;42.696;23.218;2024-03-08T13:22:41;4.47;;;2.30;;
43552;SDS011;29153;42.696;23.218;2024-03-08T13:25:09;4.33;;;1.75;;
43552;SDS011;29153;42.696;23.218;2024-03-08T13:27:40;3.17;;;1.90;;
43552;SDS011;29153;42.696;23.218;2024-03-08T13:30:10;5.25;;;1.70;;
43552;SDS011;29153;42.696;23.218;2024-03-08T13:32:39;6.97;;;2.85;;
43552;SDS011;29153;42.696;23.218;2024-03-08T13:35:10;5.62;;;2.70;;
43552;SDS011;29153;42.696;23.218;2024-03-08T13:37:41;4.87;;;2.40;;
43552;SDS011;29153;42.696;23.218;2024-03-08T13:40:09;4.30;;;2.52;;
43552;SDS011;29153;42.696;23.218;2024-03-08T13:42:42;3.00;;;1.80;;
43552;SDS011;29153;42.696;23.218;2024-03-08T13:45:09;5.05;;;1.70;;
43552;SDS011;29153;42.696;23.218;2024-03-08T13:50:09;3.83;;;2.00;;
43552;SDS011;29153;42.696;23.218;2024-03-08T13:52:38;10.98;;;5.67;;
43552;SDS011;29153;42.696;23.218;2024-03-08T13:55:06;5.05;;;2.20;;
43552;SDS011;29153;42.696;23.218;2024-03-08T13:57:34;6.20;;;3.02;;
43552;SDS011;29153;42.696;23.218;2024-03-08T14:00:02;8.48;;;3.70;;
43552;SDS011;29153;42.696;23.218;2024-03-08T14:02:31;9.50;;;3.80;;
43552;SDS011;29153;42.696;23.218;2024-03-08T14:04:59;3.87;;;1.65;;
43552;SDS011;29153;42.696;23.218;2024-03-08T14:07:28;7.25;;;2.80;;
43552;SDS011;29153;42.696;23.218;2024-03-08T14:09:55;9.28;;;3.08;;
43552;SDS011;29153;42.696;23.218;2024-03-08T14:12:25;9.33;;;2.72;;
43552;SDS011;29153;42.696;23.218;2024-03-08T14:14:52;4.90;;;2.05;;
43552;SDS011;29153;42.696;23.218;2024-03-08T14:17:20;3.10;;;1.25;;
43552;SDS011;29153;42.696;23.218;2024-03-08T14:19:49;5.95;;;2.50;;
43552;SDS011;29153;42.696;23.218;2024-03-08T14:22:16;7.17;;;2.25;;
43552;SDS011;29153;42.696;23.218;2024-03-08T14:24:44;7.33;;;2.77;;
43552;SDS011;29153;42.696;23.218;2024-03-08T14:27:11;8.13;;;3.42;;
43552;SDS011;29153;42.696;23.218;2024-03-08T14:29:40;7.53;;;3.20;;
43552;SDS011;29153;42.696;23.218;2024-03-08T14:32:09;4.70;;;1.62;;
43552;SDS011;29153;42.696;23.218;2024-03-08T14:34:38;6.42;;;2.02;;
43552;SDS011;29153;42.696;23.218;2024-03-08T14:37:06;3.90;;;1.52;;
43552;SDS011;29153;42.696;23.218;2024-03-08T14:39:35;4.60;;;2.30;;
43552;SDS011;29153;42.696;23.218;2024-03-08T14:42:04;6.22;;;2.35;;
43552;SDS011;29153;42.696;23.218;2024-03-08T14:44:33;4.65;;;2.83;;
43552;SDS011;29153;42.696;23.218;2024-03-08T14:47:01;6.90;;;2.55;;
43552;SDS011;29153;42.696;23.218;2024-03-08T14:49:30;6.12;;;2.77;;
43552;SDS011;29153;42.696;23.218;2024-03-08T14:52:00;6.53;;;3.35;;
43552;SDS011;29153;42.696;23.218;2024-03-08T14:54:27;5.97;;;2.27;;
43552;SDS011;29153;42.696;23.218;2024-03-08T14:56:55;8.28;;;4.08;;
43552;SDS011;29153;42.696;23.218;2024-03-08T14:59:23;7.33;;;3.15;;
43552;SDS011;29153;42.696;23.218;2024-03-08T15:01:52;5.55;;;2.30;;
43552;SDS011;29153;42.696;23.218;2024-03-08T15:04:19;7.45;;;2.17;;
43552;SDS011;29153;42.696;23.218;2024-03-08T15:06:47;4.40;;;1.67;;
43552;SDS011;29153;42.696;23.218;2024-03-08T15:09:15;9.75;;;3.50;;
43552;SDS011;29153;42.696;23.218;2024-03-08T15:11:46;8.65;;;4.05;;
43552;SDS011;29153;42.696;23.218;2024-03-08T15:14:18;6.17;;;2.30;;
43552;SDS011;29153;42.696;23.218;2024-03-08T15:16:46;12.37;;;7.95;;
43552;SDS011;29153;42.696;23.218;2024-03-08T15:19:14;13.05;;;7.30;;